Time;durP1;ratioP1;P1;durP2;ratioP2;P2;SDS_P1;SDS_P2;PMS_P1;PMS_P2;Temp;Humidity;BMP_temperature;BMP_pressure;BME280_temperature;BME280_humidity;BME280_pressure;Samples;Min_cycle;Max_cycle;Signal;HPM_P1;HPM_P2
2021/04/21 00:01:02;;;;;;;46.78;4.10;;;34.10;15.50;;;;;;5028891;28;20114;-60
2021/04/21 00:03:30;;;;;;;40.85;5.20;;;34.00;16.10;;;;;;5027527;28;20074;-58
2021/04/21 00:05:59;;;;;;;41.83;4.43;;;33.90;14.30;;;;;;5029573;28;20078;-59
2021/04/21 00:08:27;;;;;;;53.33;4.20;;;33.90;13.70;;;;;;5028654;28;20181;-57
2021/04/21 00:10:55;;;;;;;46.42;4.35;;;33.70;13.10;;;;;;5030942;28;20077;-58
2021/04/21 00:13:23;;;;;;;61.65;4.82;;;33.70;12.40;;;;;;5030780;28;20161;-58
2021/04/21 00:15:51;;;;;;;52.15;4.82;;;33.80;12.60;;;;;;5030340;28;20077;-57
2021/04/21 00:18:20;;;;;;;55.63;4.90;;;33.80;13.00;;;;;;5033390;28;20077;-57
2021/04/21 00:21:01;;;;;;;34.88;3.85;;;33.90;12.90;;;;;;5031214;28;20089;-58
2021/04/21 00:23:31;;;;;;;27.35;3.95;;;33.90;12.90;;;;;;5032578;28;20069;-60
2021/04/21 00:25:58;;;;;;;41.00;4.38;;;;;;;;;;5030276;28;20026;-60
2021/04/21 00:28:27;;;;;;;43.10;4.32;;;;;;;;;;5031242;28;20056;-58
2021/04/21 00:30:56;;;;;;;26.42;4.53;;;33.50;20.10;;;;;;5030108;28;20461;-59
2021/04/21 00:33:24;;;;;;;34.78;5.50;;;;;;;;;;5028975;28;20089;-60
2021/04/21 00:35:53;;;;;;;39.60;4.55;;;33.60;33.10;;;;;;5029710;28;20034;-59
2021/04/21 00:38:22;;;;;;;47.75;3.60;;;33.60;24.00;;;;;;5028849;28;20540;-59
2021/04/21 00:40:56;;;;;;;42.22;4.45;;;33.60;14.00;;;;;;5029654;28;20099;-59
2021/04/21 00:43:53;;;;;;;35.75;4.03;;;33.40;12.90;;;;;;5028533;28;20074;-59
2021/04/21 00:46:38;;;;;;;45.03;4.93;;;33.40;13.20;;;;;;5024523;28;20104;-59
2021/04/21 00:49:29;;;;;;;40.75;4.10;;;33.30;26.50;;;;;;5028781;28;20161;-55
2021/04/21 00:52:05;;;;;;;42.28;3.97;;;33.20;11.80;;;;;;5025636;28;20109;-53
2021/04/21 00:55:02;;;;;;;31.02;3.05;;;33.30;12.10;;;;;;5028701;28;20132;-56
2021/04/21 00:57:46;;;;;;;;;;;33.30;12.20;;;;;;5029343;28;20093;-62
2021/04/21 01:00:29;;;;;;;37.63;3.03;;;33.20;12.30;;;;;;5028631;28;20503;-62
2021/04/21 01:03:02;;;;;;;36.80;3.50;;;33.10;12.70;;;;;;5029446;28;20074;-62
2021/04/21 01:05:34;;;;;;;39.15;3.70;;;33.00;12.50;;;;;;5027795;28;20078;-61
2021/04/21 01:08:04;;;;;;;31.40;4.38;;;32.90;12.60;;;;;;5031423;28;20097;-62
2021/04/21 01:10:37;;;;;;;37.33;4.72;;;32.40;21.30;;;;;;5030100;28;20497;-62
2021/04/21 01:13:04;;;;;;;40.00;5.30;;;32.90;30.30;;;;;;5032534;28;20390;-61
2021/04/21 01:15:33;;;;;;;34.92;4.32;;;31.10;19.80;;;;;;5029984;28;20021;-61
2021/04/21 01:18:02;;;;;;;36.13;4.15;;;33.10;29.60;;;;;;5029874;28;20074;-62
2021/04/21 01:20:44;;;;;;;17.20;3.08;;;31.90;23.60;;;;;;5031405;28;20593;-61
2021/04/21 01:23:29;;;;;;;27.02;4.85;;;31.90;30.00;;;;;;5030123;28;20080;-62
2021/04/21 01:26:10;;;;;;;33.78;6.60;;;32.00;14.30;;;;;;5031258;28;20077;-63
2021/04/21 01:28:42;;;;;;;39.47;5.78;;;31.60;27.30;;;;;;5031191;28;20382;-62
2021/04/21 01:31:12;;;;;;;23.25;4.45;;;31.70;24.20;;;;;;5031844;28;20430;-63
2021/04/21 01:33:40;;;;;;;30.13;4.97;;;31.50;14.60;;;;;;5032039;28;20078;-62
2021/04/21 01:36:10;;;;;;;20.15;4.28;;;31.20;15.10;;;;;;5045643;28;20064;-64
2021/04/21 01:38:39;;;;;;;24.85;3.75;;;30.80;25.70;;;;;;5032214;28;20085;-62
2021/04/21 01:41:10;;;;;;;32.33;3.50;;;30.90;37.80;;;;;;5032442;28;20088;-62
2021/04/21 01:43:52;;;;;;;39.17;4.97;;;30.80;15.20;;;;;;5032052;28;20064;-61
2021/04/21 01:46:21;;;;;;;26.42;4.07;;;30.50;40.90;;;;;;5032029;28;20048;-62
2021/04/21 01:48:49;;;;;;;43.35;5.13;;;30.70;15.70;;;;;;5031450;28;20156;-61
2021/04/21 01:51:47;;;;;;;31.45;4.50;;;30.60;15.50;;;;;;5029012;28;20585;-62
2021/04/21 01:54:16;;;;;;;26.67;3.95;;;30.50;15.80;;;;;;5030419;28;20081;-63
2021/04/21 01:56:54;;;;;;;27.83;3.58;;;30.40;16.10;;;;;;5019987;28;20084;-64
2021/04/21 01:59:43;;;;;;;22.08;2.65;;;30.30;16.50;;;;;;5022426;28;20116;-63
2021/04/21 02:02:32;;;;;;;20.42;2.60;;;30.20;16.50;;;;;;5031256;28;20473;-62
2021/04/21 02:05:11;;;;;;;18.33;2.90;;;30.10;16.90;;;;;;5029651;28;20084;-68
2021/04/21 02:08:12;;;;;;;29.35;3.00;;;29.90;17.60;;;;;;5030697;28;20088;-61
2021/04/21 02:10:47;;;;;;;17.45;2.50;;;29.90;17.50;;;;;;5030128;28;20415;-59
2021/04/21 02:13:17;;;;;;;26.13;2.85;;;29.80;17.60;;;;;;5030781;28;20086;-63
2021/04/21 02:16:02;;;;;;;16.45;2.50;;;29.60;17.80;;;;;;5030597;28;21646;-63
2021/04/21 02:18:40;;;;;;;17.58;2.53;;;29.50;18.00;;;;;;5030810;28;20081;-60
2021/04/21 02:21:16;;;;;;;20.70;2.95;;;29.40;18.30;;;;;;5030841;28;20185;-63
2021/04/21 02:24:08;;;;;;;15.13;2.47;;;29.40;18.60;;;;;;5028663;28;20103;-62
2021/04/21 02:26:58;;;;;;;19.00;2.33;;;29.30;18.70;;;;;;5028734;28;20078;-61
2021/04/21 02:29:43;;;;;;;31.50;3.40;;;29.10;19.20;;;;;;5029166;28;20610;-63
2021/04/21 02:32:27;;;;;;;22.75;2.80;;;29.00;19.30;;;;;;5028549;28;20487;-61
2021/04/21 02:34:56;;;;;;;27.95;3.22;;;28.90;19.50;;;;;;5028110;28;20112;-61
2021/04/21 02:37:50;;;;;;;17.00;2.95;;;28.80;19.50;;;;;;5027775;28;20458;-60
2021/04/21 02:40:40;;;;;;;18.23;2.33;;;28.70;19.30;;;;;;5026476;28;20074;-59
2021/04/21 02:43:28;;;;;;;11.00;2.42;;;28.70;19.30;;;;;;5026910;28;20066;-60
2021/04/21 02:46:38;;;;;;;22.00;2.45;;;28.50;19.40;;;;;;5028367;28;20074;-60
2021/04/21 02:49:07;;;;;;;16.83;2.25;;;28.50;19.30;;;;;;5029358;28;20614;-60
2021/04/21 02:52:01;;;;;;;14.35;2.08;;;28.50;19.60;;;;;;5028483;28;20097;-61
2021/04/21 02:54:42;;;;;;;14.90;2.92;;;28.40;19.80;;;;;;5028413;28;20081;-61
2021/04/21 02:57:33;;;;;;;17.25;2.63;;;28.30;20.00;;;;;;5029184;28;20089;-62
2021/04/21 03:00:06;;;;;;;19.27;3.33;;;28.20;20.20;;;;;;5028047;28;20156;-63
2021/04/21 03:02:57;;;;;;;22.50;4.35;;;28.00;20.70;;;;;;5029497;28;20161;-62
2021/04/21 03:05:30;;;;;;;35.78;4.50;;;28.00;21.10;;;;;;5029351;28;20082;-61
2021/04/21 03:08:04;;;;;;;21.00;3.83;;;28.00;21.50;;;;;;5030671;28;20594;-60
2021/04/21 03:10:55;;;;;;;16.45;4.57;;;27.90;21.90;;;;;;5030214;28;20081;-62
2021/04/21 03:13:30;;;;;;;26.60;3.92;;;27.80;22.10;;;;;;5028797;28;20101;-63
2021/04/21 03:16:01;;;;;;;19.88;3.60;;;27.80;22.50;;;;;;5030701;28;20066;-63
2021/04/21 03:18:30;;;;;;;19.52;2.63;;;27.70;22.60;;;;;;5031744;28;20074;-62
2021/04/21 03:21:10;;;;;;;14.90;3.15;;;27.60;22.70;;;;;;5033374;28;20065;-63
2021/04/21 03:23:41;;;;;;;23.80;3.42;;;27.60;22.80;;;;;;5033750;28;20177;-66
2021/04/21 03:26:08;;;;;;;24.98;5.15;;;27.60;23.20;;;;;;5034814;28;20094;-65
2021/04/21 03:28:38;;;;;;;14.65;3.50;;;27.40;23.00;;;;;;5033732;28;20435;-64
2021/04/21 03:31:08;;;;;;;17.27;3.63;;;27.40;23.30;;;;;;5033225;28;20116;-62
2021/04/21 03:33:50;;;;;;;16.42;3.03;;;27.30;23.70;;;;;;5033846;28;20134;-62
2021/04/21 03:36:20;;;;;;;21.20;2.78;;;27.30;24.20;;;;;;5033034;28;20062;-62
2021/04/21 03:38:48;;;;;;;17.90;4.80;;;27.20;24.80;;;;;;5032972;28;20145;-63
2021/04/21 03:41:15;;;;;;;15.07;3.97;;;27.20;25.40;;;;;;5032203;28;20474;-62
2021/04/21 03:43:43;;;;;;;23.10;4.10;;;27.10;25.60;;;;;;5031822;28;20116;-62
2021/04/21 03:46:13;;;;;;;24.40;4.38;;;27.10;25.90;;;;;;5033451;28;20097;-62
2021/04/21 03:48:42;;;;;;;16.67;3.80;;;27.00;26.40;;;;;;5033057;28;20093;-62
2021/04/21 03:51:10;;;;;;;22.33;3.83;;;26.80;26.70;;;;;;5034139;28;20077;-62
2021/04/21 03:53:42;;;;;;;12.82;3.70;;;26.70;27.10;;;;;;5035133;28;20074;-62
2021/04/21 03:56:14;;;;;;;21.40;3.00;;;26.60;27.60;;;;;;5034349;28;20148;-64
2021/04/21 03:58:45;;;;;;;19.95;3.53;;;26.60;28.10;;;;;;5032823;28;20078;-60
2021/04/21 04:01:18;;;;;;;25.13;4.03;;;26.50;28.60;;;;;;5033395;28;20193;-61
2021/04/21 04:04:11;;;;;;;25.25;3.53;;;26.40;28.90;;;;;;5034347;28;20070;-63
2021/04/21 04:06:51;;;;;;;18.67;3.15;;;26.30;29.10;;;;;;5032714;28;20082;-62
2021/04/21 04:09:22;;;;;;;19.08;3.38;;;26.20;29.30;;;;;;5032399;28;20081;-62
2021/04/21 04:11:55;;;;;;;22.60;4.20;;;26.10;29.60;;;;;;5032207;28;20185;-63
2021/04/21 04:14:30;;;;;;;23.23;3.63;;;26.10;29.90;;;;;;5032480;28;20074;-61
2021/04/21 04:16:59;;;;;;;17.63;3.63;;;26.00;30.00;;;;;;5035644;28;20077;-61
2021/04/21 04:19:27;;;;;;;22.63;4.10;;;26.00;30.00;;;;;;5032818;28;20074;-61
2021/04/21 04:22:16;;;;;;;21.05;4.55;;;25.80;30.10;;;;;;5031758;28;20074;-63
2021/04/21 04:24:44;;;;;;;23.13;5.15;;;25.80;30.40;;;;;;5031949;28;20081;-63
2021/04/21 04:27:22;;;;;;;27.52;5.10;;;25.60;30.40;;;;;;5032729;28;20149;-63
2021/04/21 04:29:50;;;;;;;23.67;4.65;;;25.60;30.70;;;;;;5029954;28;20081;-64
2021/04/21 04:32:19;;;;;;;19.85;4.28;;;25.50;31.00;;;;;;5032018;28;20112;-62
2021/04/21 04:34:49;;;;;;;24.42;5.10;;;25.40;31.10;;;;;;5029241;28;20561;-62
2021/04/21 04:37:17;;;;;;;31.60;4.93;;;25.30;31.20;;;;;;5034025;28;20078;-60
2021/04/21 04:39:45;;;;;;;23.08;4.65;;;25.20;31.50;;;;;;5031988;28;20074;-63
2021/04/21 04:42:12;;;;;;;24.58;5.18;;;25.20;31.80;;;;;;5031245;28;20085;-63
2021/04/21 04:44:42;;;;;;;21.80;4.15;;;25.10;31.80;;;;;;5031230;28;20120;-63
2021/04/21 04:47:13;;;;;;;24.38;4.28;;;25.00;32.10;;;;;;5032899;28;20072;-64
2021/04/21 04:50:04;;;;;;;28.05;4.60;;;24.90;32.40;;;;;;5032847;28;20124;-63
2021/04/21 04:52:33;;;;;;;29.60;3.92;;;24.90;32.70;;;;;;5032225;28;20474;-65
2021/04/21 04:55:01;;;;;;;22.98;3.90;;;24.80;32.60;;;;;;5029981;28;20066;-63
2021/04/21 04:57:30;;;;;;;22.52;4.00;;;24.70;33.10;;;;;;5031506;28;20081;-63
2021/04/21 05:00:03;;;;;;;24.20;4.20;;;24.70;33.70;;;;;;5032708;28;20192;-66
2021/04/21 05:02:35;;;;;;;22.75;4.03;;;24.70;33.60;;;;;;5030189;28;20105;-64
2021/04/21 05:05:07;;;;;;;24.73;4.53;;;24.60;33.70;;;;;;5031426;28;20074;-64
2021/04/21 05:07:44;;;;;;;20.67;4.32;;;24.50;34.40;;;;;;5032586;28;20074;-65
2021/04/21 05:10:18;;;;;;;35.50;4.43;;;24.50;33.60;;;;;;5016378;28;20077;-65
2021/04/21 05:12:47;;;;;;;31.73;4.60;;;24.40;33.80;;;;;;5033544;28;20102;-63
2021/04/21 05:15:32;;;;;;;25.90;4.13;;;24.40;33.80;;;;;;5033333;28;20084;-64
2021/04/21 05:18:37;;;;;;;15.93;3.67;;;24.40;34.20;;;;;;5032102;28;20066;-61
2021/04/21 05:21:55;;;;;;;29.17;5.10;;;24.30;34.40;;;;;;5031843;28;20091;-62
2021/04/21 05:24:46;;;;;;;20.50;4.97;;;24.20;35.10;;;;;;5030343;28;20181;-63
2021/04/21 05:27:50;;;;;;;26.08;5.57;;;24.10;34.50;;;;;;5031449;28;20160;-64
2021/04/21 05:30:48;;;;;;;30.55;4.80;;;24.10;34.80;;;;;;5030338;28;21558;-62
2021/04/21 05:33:51;;;;;;;28.50;5.25;;;24.00;35.50;;;;;;5026681;28;20098;-64
2021/04/21 05:36:55;;;;;;;25.05;4.43;;;24.00;35.20;;;;;;5031308;28;20578;-64
2021/04/21 05:39:43;;;;;;;21.17;4.45;;;24.00;35.60;;;;;;5031839;28;20110;-62
2021/04/21 05:42:55;;;;;;;37.35;5.35;;;23.80;35.70;;;;;;5030136;28;20093;-63
2021/04/21 05:45:37;;;;;;;23.52;4.45;;;23.80;35.90;;;;;;5013254;28;20139;-62
2021/04/21 05:48:20;;;;;;;24.13;3.95;;;23.70;36.00;;;;;;5030771;28;20530;-63
2021/04/21 05:51:02;;;;;;;22.70;3.50;;;23.60;36.40;;;;;;5029133;28;20101;-63
2021/04/21 05:53:47;;;;;;;21.13;4.03;;;23.40;36.60;;;;;;5030786;28;20531;-63
2021/04/21 05:56:25;;;;;;;21.58;4.93;;;23.30;36.70;;;;;;5030196;28;20101;-63
2021/04/21 05:59:25;;;;;;;28.27;3.55;;;23.10;37.20;;;;;;5030187;28;20069;-64
2021/04/21 06:01:54;;;;;;;23.15;4.13;;;23.00;37.30;;;;;;5029131;28;20551;-62
2021/04/21 06:04:23;;;;;;;26.98;4.55;;;23.00;37.50;;;;;;5013248;28;20458;-61
2021/04/21 06:06:49;;;;;;;18.23;2.95;;;22.90;37.80;;;;;;5045393;28;20081;-63
2021/04/21 06:09:16;;;;;;;24.45;3.25;;;22.80;37.90;;;;;;5028852;28;20074;-62
2021/04/21 06:11:42;;;;;;;12.75;3.15;;;22.70;38.20;;;;;;5029063;28;20155;-64
2021/04/21 06:14:09;;;;;;;16.02;3.30;;;22.60;38.30;;;;;;5027365;28;20074;-66
2021/04/21 06:16:37;;;;;;;15.00;3.20;;;22.70;38.40;;;;;;5028752;28;20755;-64
2021/04/21 06:19:06;;;;;;;14.32;3.45;;;22.60;38.60;;;;;;5028893;28;20077;-62
2021/04/21 06:21:39;;;;;;;28.08;4.38;;;22.70;38.70;;;;;;5029531;28;20074;-64
2021/04/21 06:24:18;;;;;;;15.18;5.00;;;22.70;38.50;;;;;;5029511;28;20069;-62
2021/04/21 06:26:44;;;;;;;16.27;4.97;;;22.70;38.30;;;;;;5028381;28;20062;-65
2021/04/21 06:29:12;;;;;;;16.80;4.60;;;22.70;38.00;;;;;;5028926;28;20495;-61
2021/04/21 06:31:46;;;;;;;17.83;3.60;;;22.70;37.90;;;;;;5030294;28;20460;-62
2021/04/21 06:34:14;;;;;;;19.63;4.60;;;22.70;38.00;;;;;;5029025;28;20588;-63
2021/04/21 06:36:52;;;;;;;20.27;5.63;;;22.70;37.90;;;;;;5029182;28;20140;-63
2021/04/21 06:39:22;;;;;;;18.13;5.85;;;22.60;38.00;;;;;;5028561;28;20527;-63
2021/04/21 06:41:58;;;;;;;17.13;4.07;;;22.60;37.80;;;;;;5028241;28;20153;-63
2021/04/21 06:44:46;;;;;;;17.75;3.10;;;22.60;37.70;;;;;;5026629;28;20156;-62
2021/04/21 06:47:20;;;;;;;18.33;4.00;;;22.60;37.60;;;;;;5029841;28;20144;-62
2021/04/21 06:50:05;;;;;;;16.23;3.22;;;22.60;37.40;;;;;;5028653;28;20097;-63
2021/04/21 06:52:38;;;;;;;16.73;3.67;;;22.60;37.40;;;;;;5028991;28;20577;-63
2021/04/21 06:55:07;;;;;;;17.27;3.70;;;22.60;37.20;;;;;;5030919;28;20074;-63
2021/04/21 06:57:34;;;;;;;16.35;3.95;;;22.50;37.30;;;;;;5032023;28;20103;-65
2021/04/21 07:00:29;;;;;;;18.02;4.00;;;22.40;37.60;;;;;;5032904;28;20109;-62
2021/04/21 07:03:01;;;;;;;16.98;4.75;;;22.40;38.00;;;;;;5048358;28;20153;-62
2021/04/21 07:05:36;;;;;;;18.05;4.07;;;22.30;38.20;;;;;;5032894;28;20081;-62
2021/04/21 07:08:07;;;;;;;17.80;4.90;;;22.20;38.50;;;;;;5031787;28;20070;-62
2021/04/21 07:10:36;;;;;;;18.77;5.43;;;22.10;39.00;;;;;;5032169;28;20066;-63
2021/04/21 07:13:06;;;;;;;11.57;4.40;;;22.00;39.30;;;;;;5032417;28;20101;-62
2021/04/21 07:15:34;;;;;;;20.20;5.07;;;22.00;39.60;;;;;;5032549;28;20187;-62
2021/04/21 07:18:01;;;;;;;18.63;4.72;;;21.90;40.00;;;;;;5031919;28;20086;-63
2021/04/21 07:20:29;;;;;;;21.90;4.88;;;22.00;40.30;;;;;;5031136;28;20089;-63
2021/04/21 07:22:56;;;;;;;18.63;4.18;;;21.90;40.30;;;;;;5032277;28;21337;-62
2021/04/21 07:25:23;;;;;;;22.02;3.97;;;21.90;40.40;;;;;;5030997;28;20078;-64
2021/04/21 07:27:55;;;;;;;20.38;3.83;;;21.90;40.50;;;;;;5029530;28;20074;-62
2021/04/21 07:30:26;;;;;;;25.17;5.47;;;21.70;41.60;;;;;;5033443;28;20093;-62
2021/04/21 07:32:52;;;;;;;24.50;5.32;;;21.60;41.60;;;;;;5030808;28;20202;-61
2021/04/21 07:35:21;;;;;;;21.85;4.75;;;21.60;41.80;;;;;;5030284;28;20482;-62
2021/04/21 07:37:50;;;;;;;22.90;4.65;;;21.60;42.30;;;;;;5031473;28;20427;-61
2021/04/21 07:40:31;;;;;;;28.05;4.50;;;21.60;42.50;;;;;;5031613;28;20086;-61
2021/04/21 07:43:11;;;;;;;23.83;4.40;;;21.60;42.70;;;;;;5031769;28;20082;-62
2021/04/21 07:45:41;;;;;;;20.25;5.47;;;21.50;43.60;;;;;;5034802;28;20089;-63
2021/04/21 07:48:35;;;;;;;32.03;7.90;;;21.40;43.00;;;;;;5032384;28;20718;-60
2021/04/21 07:51:26;;;;;;;19.75;6.30;;;21.40;43.10;;;;;;5032503;28;20085;-62
2021/04/21 07:54:06;;;;;;;19.73;5.70;;;21.40;43.70;;;;;;5031189;28;20093;-62
2021/04/21 07:56:49;;;;;;;28.70;6.38;;;21.30;43.70;;;;;;5030261;28;20078;-62
2021/04/21 07:59:47;;;;;;;22.30;5.72;;;21.30;43.70;;;;;;5032756;28;21089;-63
2021/04/21 08:02:23;;;;;;;25.77;6.97;;;21.20;44.50;;;;;;5030357;28;20086;-63
2021/04/21 08:04:58;;;;;;;19.97;6.00;;;21.20;44.90;;;;;;5029690;28;20077;-64
2021/04/21 08:07:39;;;;;;;27.55;5.60;;;21.20;44.80;;;;;;5031294;28;20484;-64
2021/04/21 08:10:09;;;;;;;19.80;5.35;;;21.10;44.80;;;;;;5031159;28;20118;-62
2021/04/21 08:12:38;;;;;;;26.27;5.60;;;21.10;45.00;;;;;;5032151;28;20187;-63
2021/04/21 08:15:10;;;;;;;22.27;5.38;;;21.00;45.20;;;;;;5030487;28;20097;-64
2021/04/21 08:18:04;;;;;;;27.50;5.88;;;21.00;45.30;;;;;;5031476;28;20073;-62
2021/04/21 08:20:33;;;;;;;27.48;5.32;;;20.90;45.10;;;;;;5029854;28;20164;-63
2021/04/21 08:23:02;;;;;;;20.90;5.93;;;20.80;45.30;;;;;;5031137;28;20077;-64
2021/04/21 08:25:29;;;;;;;21.80;5.40;;;20.80;46.00;;;;;;5030440;28;20088;-63
2021/04/21 08:27:56;;;;;;;27.90;5.78;;;20.70;46.00;;;;;;5031108;28;20089;-63
2021/04/21 08:30:23;;;;;;;28.65;5.90;;;20.80;45.80;;;;;;5028845;28;20089;-63
2021/04/21 08:32:50;;;;;;;25.48;5.82;;;20.70;46.30;;;;;;5032566;28;20160;-64
2021/04/21 08:35:17;;;;;;;21.02;5.53;;;20.70;46.30;;;;;;5030727;28;20165;-66
2021/04/21 08:37:44;;;;;;;20.67;5.13;;;20.60;46.30;;;;;;5030689;28;20165;-64
2021/04/21 08:40:13;;;;;;;32.92;5.22;;;20.60;46.60;;;;;;5031209;28;20074;-64
2021/04/21 08:42:42;;;;;;;17.80;5.20;;;20.50;46.70;;;;;;5030284;28;20127;-64
2021/04/21 08:45:10;;;;;;;17.20;4.88;;;20.50;47.40;;;;;;5030568;28;20085;-64
2021/04/21 08:47:41;;;;;;;26.10;5.78;;;20.50;47.60;;;;;;5032056;28;20078;-64
2021/04/21 08:50:10;;;;;;;19.23;5.45;;;20.50;47.80;;;;;;5030310;28;20127;-63
2021/04/21 08:52:46;;;;;;;23.75;5.85;;;20.50;47.50;;;;;;5030119;28;20152;-65
2021/04/21 08:55:16;;;;;;;23.17;5.70;;;20.40;48.00;;;;;;5030888;28;20523;-63
2021/04/21 08:57:45;;;;;;;26.48;6.72;;;20.30;47.90;;;;;;5029931;28;20078;-62
2021/04/21 09:00:16;;;;;;;31.27;7.22;;;20.20;47.50;;;;;;5030693;28;20113;-62
2021/04/21 09:02:44;;;;;;;30.00;5.80;;;20.10;47.80;;;;;;5029671;28;20093;-63
2021/04/21 09:05:11;;;;;;;28.67;6.72;;;20.10;48.30;;;;;;5028190;28;20088;-63
2021/04/21 09:07:38;;;;;;;27.55;6.85;;;20.10;48.60;;;;;;5029931;28;20165;-62
2021/04/21 09:10:10;;;;;;;27.17;6.45;;;20.00;47.90;;;;;;5030180;28;20160;-63
2021/04/21 09:12:37;;;;;;;28.83;7.20;;;19.90;48.10;;;;;;5029428;28;20102;-63
2021/04/21 09:15:05;;;;;;;28.92;7.22;;;19.90;48.30;;;;;;5030076;28;20588;-63
2021/04/21 09:17:32;;;;;;;27.40;6.35;;;19.90;48.80;;;;;;5027970;28;20112;-63
2021/04/21 09:20:02;;;;;;;20.80;5.50;;;19.90;48.90;;;;;;5028633;28;20074;-62
2021/04/21 09:22:29;;;;;;;30.23;6.68;;;19.90;49.30;;;;;;5029375;28;20085;-63
2021/04/21 09:24:55;;;;;;;;;;;19.90;49.80;;;;;;5030996;28;20070;-63
2021/04/21 09:27:25;;;;;;;18.98;5.40;;;19.80;49.90;;;;;;5029091;28;20060;-63
2021/04/21 09:30:16;;;;;;;19.23;5.35;;;19.90;49.60;;;;;;5028178;28;20088;-62
2021/04/21 09:33:00;;;;;;;19.48;4.97;;;19.80;49.60;;;;;;5027654;28;20105;-62
2021/04/21 09:35:28;;;;;;;24.23;5.28;;;19.80;50.30;;;;;;5030945;28;20070;-63
2021/04/21 09:38:05;;;;;;;17.00;5.30;;;19.80;51.10;;;;;;5029050;28;20168;-62
2021/04/21 09:40:53;;;;;;;27.05;6.03;;;19.70;50.40;;;;;;5028895;28;20077;-62
2021/04/21 09:43:23;;;;;;;19.75;5.93;;;19.60;50.50;;;;;;5028274;28;20080;-63
2021/04/21 09:45:50;;;;;;;19.42;6.00;;;19.60;50.50;;;;;;5027653;28;20132;-61
2021/04/21 09:48:23;;;;;;;17.70;6.03;;;19.60;50.40;;;;;;5031197;28;20078;-63
2021/04/21 09:51:05;;;;;;;31.77;6.88;;;19.40;50.70;;;;;;5026662;28;20070;-62
2021/04/21 09:53:41;;;;;;;24.95;6.22;;;19.40;51.50;;;;;;5028348;28;20089;-63
2021/04/21 09:56:26;;;;;;;25.70;6.50;;;19.40;51.50;;;;;;5029629;28;20066;-62
2021/04/21 09:58:58;;;;;;;27.75;6.28;;;19.30;51.50;;;;;;5030953;28;20077;-61
2021/04/21 10:01:38;;;;;;;23.73;6.03;;;19.30;52.00;;;;;;5028494;28;20474;-62
2021/04/21 10:04:21;;;;;;;23.65;5.75;;;19.20;51.90;;;;;;5028626;28;20070;-60
2021/04/21 10:06:51;;;;;;;18.25;5.78;;;19.20;52.10;;;;;;5028318;28;20073;-62
2021/04/21 10:09:24;;;;;;;20.95;5.57;;;19.10;52.40;;;;;;5028654;28;20128;-62
2021/04/21 10:11:52;;;;;;;24.98;6.25;;;19.10;52.30;;;;;;5026822;28;20137;-62
2021/04/21 10:14:25;;;;;;;19.73;5.43;;;19.00;53.00;;;;;;5028867;28;20136;-63
2021/04/21 10:16:52;;;;;;;20.27;5.30;;;19.00;53.10;;;;;;5028815;28;20082;-63
2021/04/21 10:19:21;;;;;;;21.00;4.90;;;19.00;53.40;;;;;;5028822;28;20523;-63
2021/04/21 10:21:48;;;;;;;19.10;5.70;;;19.00;53.70;;;;;;5026902;28;20074;-63
2021/04/21 10:24:14;;;;;;;;;;;19.00;53.40;;;;;;5029035;28;20132;-63
2021/04/21 10:26:41;;;;;;;22.33;5.97;;;19.00;52.80;;;;;;5028799;28;19964;-63
2021/04/21 10:29:08;;;;;;;22.30;5.30;;;18.90;53.70;;;;;;5028198;28;20105;-63
2021/04/21 10:31:35;;;;;;;24.23;5.05;;;18.80;53.40;;;;;;5029390;28;20094;-63
2021/04/21 10:34:04;;;;;;;22.05;4.72;;;18.80;53.80;;;;;;5028922;28;20539;-62
2021/04/21 10:36:31;;;;;;;26.20;6.43;;;18.80;53.70;;;;;;5030101;28;20161;-62
2021/04/21 10:38:58;;;;;;;18.73;5.88;;;18.70;53.90;;;;;;5028877;28;20143;-63
2021/04/21 10:41:38;;;;;;;24.95;6.53;;;18.80;53.90;;;;;;5029229;28;20066;-62
2021/04/21 10:44:19;;;;;;;23.75;6.20;;;18.80;53.70;;;;;;5027781;28;20221;-63
2021/04/21 10:47:04;;;;;;;21.13;5.90;;;18.70;54.20;;;;;;5029804;28;20073;-63
2021/04/21 10:49:58;;;;;;;17.55;4.88;;;18.70;54.00;;;;;;5028570;28;20065;-63
2021/04/21 10:52:30;;;;;;;18.73;4.85;;;18.60;54.10;;;;;;5026499;28;20105;-63
2021/04/21 10:55:00;;;;;;;17.75;5.32;;;18.50;54.60;;;;;;5028842;28;20520;-63
2021/04/21 10:57:35;;;;;;;25.13;5.93;;;18.40;54.80;;;;;;5028531;28;20082;-63
2021/04/21 11:00:18;;;;;;;24.25;5.75;;;18.30;54.60;;;;;;5028542;28;20128;-63
2021/04/21 11:02:55;;;;;;;27.45;5.85;;;18.30;55.50;;;;;;5027963;28;20534;-62
2021/04/21 11:05:29;;;;;;;19.00;5.45;;;18.40;54.70;;;;;;5030412;28;20160;-63
2021/04/21 11:08:04;;;;;;;27.85;6.00;;;18.30;54.10;;;;;;5027964;28;20120;-63
2021/04/21 11:10:42;;;;;;;22.73;5.70;;;18.40;55.00;;;;;;5026886;28;20159;-63
2021/04/21 11:13:10;;;;;;;18.83;5.25;;;18.30;55.80;;;;;;5028280;28;20097;-63
2021/04/21 11:15:44;;;;;;;20.55;6.15;;;18.20;55.60;;;;;;5027571;28;21333;-63
2021/04/21 11:18:11;;;;;;;22.33;5.82;;;18.10;56.00;;;;;;5028670;28;20112;-62
2021/04/21 11:20:47;;;;;;;17.75;4.53;;;18.10;56.00;;;;;;5027994;28;20219;-62
2021/04/21 11:26:28;;;;;;;28.10;5.20;;;18.10;56.30;;;;;;5027860;28;20178;-64
2021/04/21 11:29:14;;;;;;;22.38;5.60;;;18.00;56.80;;;;;;5026391;28;20078;-62
2021/04/21 11:31:49;;;;;;;27.33;5.28;;;18.00;56.50;;;;;;5027205;28;20442;-61
2021/04/21 11:34:26;;;;;;;26.33;5.15;;;17.90;56.30;;;;;;5026966;28;20080;-62
2021/04/21 11:36:56;;;;;;;;;;;18.00;56.50;;;;;;5028979;28;20074;-62
2021/04/21 11:39:44;;;;;;;25.13;6.57;;;18.00;55.40;;;;;;5028889;28;19959;-63
2021/04/21 11:42:41;;;;;;;30.85;6.28;;;18.10;54.40;;;;;;5029029;28;20134;-61
2021/04/21 11:45:31;;;;;;;27.60;7.90;;;18.00;53.90;;;;;;5030759;28;20547;-63
2021/04/21 11:48:04;;;;;;;33.97;8.63;;;18.00;53.70;;;;;;5031552;28;20462;-63
2021/04/21 11:50:38;;;;;;;37.05;9.13;;;18.00;54.60;;;;;;5031680;28;20066;-62
2021/04/21 11:53:14;;;;;;;36.97;8.75;;;17.90;55.00;;;;;;5030640;28;20112;-62
2021/04/21 11:58:28;;;;;;;43.78;11.02;;;17.80;55.20;;;;;;5031835;28;20085;-62
2021/04/21 12:01:03;;;;;;;47.83;10.57;;;17.80;55.20;;;;;;5031575;28;20200;-62
2021/04/21 12:03:35;;;;;;;59.08;11.27;;;17.80;55.20;;;;;;5029288;28;20160;-62
2021/04/21 12:06:10;;;;;;;36.85;11.38;;;18.00;55.10;;;;;;5031245;28;20119;-62
2021/04/21 12:08:47;;;;;;;38.63;11.65;;;18.00;54.40;;;;;;5029945;28;20081;-62
2021/04/21 12:11:22;;;;;;;45.03;11.82;;;18.00;54.20;;;;;;5031145;28;20082;-62
2021/04/21 12:13:48;;;;;;;64.40;13.27;;;18.10;54.00;;;;;;5014208;28;20081;-62
2021/04/21 12:16:19;;;;;;;;;;;18.10;54.20;;;;;;5032644;28;20076;-62
2021/04/21 12:18:58;;;;;;;39.58;12.55;;;18.00;53.30;;;;;;5030543;28;21024;-62
2021/04/21 12:21:36;;;;;;;45.97;13.27;;;18.00;53.90;;;;;;5029602;28;20416;-62
2021/04/21 12:24:06;;;;;;;54.28;13.60;;;17.90;53.30;;;;;;5030811;28;20180;-62
2021/04/21 12:26:35;;;;;;;73.03;14.85;;;17.80;53.80;;;;;;5030373;28;20212;-62
2021/04/21 12:29:15;;;;;;;54.38;15.27;;;17.80;53.90;;;;;;5032458;28;20155;-63
2021/04/21 12:31:43;;;;;;;50.28;14.95;;;17.70;53.50;;;;;;5032448;28;20092;-63
2021/04/21 12:34:20;;;;;;;60.20;15.00;;;17.70;53.70;;;;;;5031794;28;20519;-62
2021/04/21 12:36:48;;;;;;;53.10;13.52;;;17.70;52.40;;;;;;5031429;28;20104;-61
2021/04/21 12:39:22;;;;;;;48.40;12.98;;;17.60;52.40;;;;;;5030315;28;20585;-63
2021/04/21 12:41:55;;;;;;;56.00;14.43;;;17.60;52.30;;;;;;5030088;28;20077;-63
2021/04/21 12:44:22;;;;;;;51.13;12.90;;;17.50;51.70;;;;;;5030907;28;20070;-63
2021/04/21 12:46:51;;;;;;;49.60;13.05;;;17.40;51.00;;;;;;5029498;28;20089;-63
2021/04/21 12:49:36;;;;;;;56.90;14.90;;;17.30;50.20;;;;;;5030760;28;20082;-63
2021/04/21 12:52:05;;;;;;;72.10;16.55;;;17.30;49.90;;;;;;5028017;28;20093;-63
2021/04/21 12:54:45;;;;;;;76.45;15.68;;;17.30;49.00;;;;;;5028699;28;20078;-63
2021/04/21 12:57:47;;;;;;;76.63;15.85;;;17.20;48.70;;;;;;5030141;28;20638;-62
2021/04/21 13:00:14;;;;;;;74.90;16.08;;;17.00;48.90;;;;;;5029380;28;20105;-63
2021/04/21 13:02:45;;;;;;;68.63;14.18;;;16.90;48.90;;;;;;5029188;28;20161;-62
2021/04/21 13:05:14;;;;;;;73.28;14.45;;;16.90;48.90;;;;;;5030819;28;20482;-63
2021/04/21 13:07:40;;;;;;;61.58;14.73;;;16.90;48.70;;;;;;5032224;28;20094;-63
2021/04/21 13:10:07;;;;;;;;;;;16.80;48.50;;;;;;5030690;28;20529;-65
2021/04/21 13:12:34;;;;;;;64.93;14.45;;;16.80;49.00;;;;;;5029690;28;19978;-63
2021/04/21 13:15:18;;;;;;;55.67;10.30;;;16.80;48.90;;;;;;5030541;28;20067;-62
2021/04/21 13:17:56;;;;;;;38.25;8.45;;;16.80;49.40;;;;;;5028959;28;20455;-64
2021/04/21 13:20:47;;;;;;;48.05;8.52;;;16.70;49.60;;;;;;5030832;28;20497;-65
2021/04/21 13:23:21;;;;;;;33.55;7.57;;;16.60;50.30;;;;;;5029466;28;20098;-65
2021/04/21 13:26:07;;;;;;;40.17;7.28;;;16.60;51.10;;;;;;5029214;28;20114;-63